Fort Dodge, Iowa
Current Conditions -  °F | °C
As of 11:35 PM on Wednesday 22 Oct 2014 (Local Time) from KFOD Reporting Station
Overcast Overcast  
Wind Chill: 13°   Ceiling: 11000
Heat Index: 13°   Visibility: 10mi
Dew Point:   Wind: 6mph
Humidity: 77%   Direction: 170°S
Pressure: 30.08"   Gusts: NA
Location:  42.5°N, 94.18°W
Report Text: KFOD 230435Z AUTO 17005KT 10SM SCT031 OVC110 13/09 A3008 RMK AO1
Loading
Personal Weather Stations






























Interactive Weather Map
Tropical Storm Tracking
New forecast layout! Learn more

10-Day Weather Forecast

Advertisements
Track Severe Weather on mobile